Time;durP1;ratioP1;P1;durP2;ratioP2;P2;SDS_P1;SDS_P2;PMS_P1;PMS_P2;Temp;Humidity;BMP_temperature;BMP_pressure;BME280_temperature;BME280_humidity;BME280_pressure;Samples;Min_cycle;Max_cycle;Signal;HPM_P1;HPM_P2
2022/09/29 00:01:22;;;;;;;1.77;1.40;;;12.60;59.20;;;;;;4977062;28;20065;-50
2022/09/29 00:03:49;;;;;;;2.70;1.70;;;12.50;59.10;;;;;;4978966;28;20077;-49
2022/09/29 00:06:18;;;;;;;4.90;1.55;;;12.50;59.00;;;;;;4978531;28;20417;-47
2022/09/29 00:08:45;;;;;;;2.55;1.40;;;12.50;58.90;;;;;;4984443;28;20050;-48
2022/09/29 00:11:15;;;;;;;5.45;1.73;;;12.50;58.90;;;;;;4982586;28;20069;-47
2022/09/29 00:13:42;;;;;;;2.60;1.52;;;12.50;58.90;;;;;;4983411;28;20050;-49
2022/09/29 00:16:10;;;;;;;2.35;1.42;;;12.40;58.80;;;;;;4979916;28;20054;-46
2022/09/29 00:18:39;;;;;;;2.50;1.30;;;12.40;58.90;;;;;;4980840;28;20062;-47
2022/09/29 00:21:07;;;;;;;3.10;1.70;;;12.40;58.90;;;;;;4983136;28;20054;-51
2022/09/29 00:23:36;;;;;;;2.00;1.40;;;12.40;58.90;;;;;;4982675;28;20050;-49
2022/09/29 00:26:06;;;;;;;3.47;1.63;;;12.30;58.90;;;;;;4979771;28;20054;-46
2022/09/29 00:28:34;;;;;;;2.70;1.60;;;12.30;59.40;;;;;;4980605;28;20062;-46
2022/09/29 00:31:03;;;;;;;1.42;1.10;;;12.30;58.90;;;;;;4980659;28;20054;-47
2022/09/29 00:33:31;;;;;;;2.50;1.08;;;12.30;58.90;;;;;;4983299;28;20061;-44
2022/09/29 00:36:02;;;;;;;2.33;1.30;;;12.20;58.90;;;;;;4980299;28;20054;-50
2022/09/29 00:38:30;;;;;;;2.13;1.33;;;12.20;58.90;;;;;;4983824;28;20054;-45
2022/09/29 00:40:58;;;;;;;2.58;1.60;;;12.20;58.90;;;;;;4982103;28;20058;-46
2022/09/29 00:43:53;;;;;;;2.42;1.52;;;12.20;58.90;;;;;;4983574;28;20529;-49
2022/09/29 00:46:26;;;;;;;1.63;1.40;;;12.20;59.00;;;;;;4980434;28;20050;-46
2022/09/29 00:48:54;;;;;;;3.53;1.55;;;12.10;58.80;;;;;;4982254;28;20050;-47
2022/09/29 00:51:24;;;;;;;3.28;2.08;;;12.10;58.80;;;;;;4980135;28;21895;-49
2022/09/29 00:53:52;;;;;;;3.42;1.55;;;12.10;58.80;;;;;;4981145;28;20061;-44
2022/09/29 00:56:20;;;;;;;3.08;1.95;;;12.10;58.80;;;;;;4979974;28;20054;-49
2022/09/29 00:58:53;;;;;;;2.42;2.10;;;12.10;58.80;;;;;;4982734;28;20058;-50
2022/09/29 01:01:21;;;;;;;2.38;1.70;;;12.00;58.70;;;;;;4980561;28;20054;-48
2022/09/29 01:03:52;;;;;;;3.92;1.70;;;12.00;58.80;;;;;;4983579;28;20058;-46
2022/09/29 01:06:26;;;;;;;3.25;1.83;;;12.00;58.80;;;;;;4979264;28;20058;-47
2022/09/29 01:08:57;;;;;;;;;;;11.90;58.70;;;;;;4982731;28;20054;-50
2022/09/29 01:11:24;;;;;;;2.92;1.75;;;12.00;58.90;;;;;;4982154;28;19926;-51
2022/09/29 01:13:54;;;;;;;2.83;1.80;;;12.00;58.70;;;;;;4980329;28;20061;-47
2022/09/29 01:16:21;;;;;;;3.92;1.60;;;11.90;58.70;;;;;;4978465;28;20618;-44
2022/09/29 01:18:51;;;;;;;3.78;1.80;;;11.90;58.70;;;;;;4982160;28;20067;-46
2022/09/29 01:21:29;;;;;;;4.03;2.22;;;11.80;58.70;;;;;;4983150;28;20417;-46
2022/09/29 01:24:31;;;;;;;3.97;2.03;;;11.80;58.80;;;;;;4982556;28;20054;-49
2022/09/29 01:27:22;;;;;;;2.88;1.95;;;11.80;58.80;;;;;;4978602;28;20562;-48
2022/09/29 01:30:07;;;;;;;2.40;1.77;;;11.80;58.80;;;;;;4981650;28;20058;-45
2022/09/29 01:32:54;;;;;;;2.45;1.92;;;11.80;58.80;;;;;;4981716;28;20494;-46
2022/09/29 01:35:27;;;;;;;3.88;2.70;;;11.80;58.80;;;;;;4977552;28;20050;-46
2022/09/29 01:38:08;;;;;;;2.97;2.60;;;11.70;58.80;;;;;;4976081;28;20055;-46
2022/09/29 01:40:41;;;;;;;4.10;2.92;;;11.70;58.80;;;;;;4980084;28;21050;-51
2022/09/29 01:43:13;;;;;;;4.15;3.00;;;11.70;58.70;;;;;;4984936;28;20494;-48
2022/09/29 01:45:44;;;;;;;3.80;2.75;;;11.70;58.70;;;;;;4982066;28;20050;-47
2022/09/29 01:48:18;;;;;;;4.55;3.42;;;11.60;58.70;;;;;;4983251;28;20054;-49
2022/09/29 01:50:48;;;;;;;5.50;3.33;;;11.60;58.80;;;;;;4986555;28;20054;-45
2022/09/29 01:53:19;;;;;;;4.60;3.53;;;11.60;58.80;;;;;;4986888;28;20446;-44
2022/09/29 01:55:49;;;;;;;4.90;3.50;;;11.60;58.80;;;;;;4982117;28;20049;-49
2022/09/29 01:58:20;;;;;;;4.00;3.40;;;11.50;58.80;;;;;;4985040;28;20057;-45
2022/09/29 02:00:51;;;;;;;4.80;3.15;;;11.50;58.80;;;;;;4981487;28;20058;-48
2022/09/29 02:03:24;;;;;;;6.38;3.75;;;11.50;59.00;;;;;;4982433;28;20054;-46
2022/09/29 02:05:53;;;;;;;4.15;3.25;;;11.50;58.80;;;;;;4981431;28;20050;-47
2022/09/29 02:08:27;;;;;;;5.38;3.50;;;11.50;58.80;;;;;;4984070;28;20065;-47
2022/09/29 02:11:00;;;;;;;3.80;2.90;;;11.40;58.70;;;;;;4981273;28;20058;-46
2022/09/29 02:13:31;;;;;;;5.57;3.40;;;11.40;58.70;;;;;;4980813;28;20054;-47
2022/09/29 02:16:00;;;;;;;4.50;3.63;;;11.40;58.70;;;;;;4975227;28;20501;-52
2022/09/29 02:18:34;;;;;;;10.75;3.95;;;11.40;58.70;;;;;;4978228;28;20055;-51
2022/09/29 02:21:02;;;;;;;3.85;3.30;;;11.40;58.70;;;;;;4980343;28;20058;-48
2022/09/29 02:23:29;;;;;;;5.20;3.60;;;11.40;58.60;;;;;;4981766;28;20050;-48
2022/09/29 02:25:58;;;;;;;4.05;3.13;;;11.40;58.60;;;;;;4980668;28;20042;-49
2022/09/29 02:28:26;;;;;;;4.63;3.25;;;11.30;58.60;;;;;;4983028;28;20061;-46
2022/09/29 02:30:53;;;;;;;5.13;3.30;;;11.30;58.60;;;;;;4981330;28;20071;-46
2022/09/29 02:33:21;;;;;;;4.18;3.58;;;11.30;58.60;;;;;;4981774;28;20042;-45
2022/09/29 02:36:01;;;;;;;4.45;3.35;;;11.30;58.50;;;;;;4979838;28;20047;-48
2022/09/29 02:38:36;;;;;;;4.00;2.95;;;11.30;58.60;;;;;;4980922;28;20057;-47
2022/09/29 02:41:11;;;;;;;3.70;3.00;;;11.20;58.50;;;;;;4982453;28;20050;-48
2022/09/29 02:43:53;;;;;;;4.20;3.10;;;11.20;58.60;;;;;;4979726;28;20069;-49
2022/09/29 02:46:36;;;;;;;4.18;3.22;;;11.20;58.60;;;;;;4980911;28;20046;-45
2022/09/29 02:49:20;;;;;;;4.40;3.60;;;11.20;58.60;;;;;;4982787;28;20058;-47
2022/09/29 02:51:52;;;;;;;3.72;2.72;;;11.20;58.60;;;;;;4984826;28;20269;-57
2022/09/29 02:54:32;;;;;;;3.80;2.92;;;11.10;58.60;;;;;;4983254;28;20058;-57
2022/09/29 02:57:11;;;;;;;4.35;3.10;;;11.10;58.60;;;;;;4983164;28;20065;-53
2022/09/29 02:59:45;;;;;;;3.95;3.20;;;11.10;58.60;;;;;;4984452;28;20054;-57
2022/09/29 03:02:12;;;;;;;;;;;11.10;58.60;;;;;;4984349;28;20422;-57
2022/09/29 03:04:39;;;;;;;4.18;3.25;;;11.10;58.70;;;;;;4985309;28;19926;-57
2022/09/29 03:07:08;;;;;;;4.60;3.15;;;11.10;58.40;;;;;;4985608;28;20062;-57
2022/09/29 03:09:35;;;;;;;4.15;2.88;;;11.00;58.40;;;;;;4986270;28;20058;-55
2022/09/29 03:12:03;;;;;;;4.35;3.25;;;11.00;58.50;;;;;;4982949;28;20050;-56
2022/09/29 03:14:30;;;;;;;3.88;3.03;;;11.00;58.50;;;;;;4983263;28;20406;-56
2022/09/29 03:16:57;;;;;;;4.72;3.58;;;11.00;58.50;;;;;;4983194;28;20046;-56
2022/09/29 03:19:24;;;;;;;3.58;3.22;;;11.00;58.50;;;;;;4985013;28;20521;-57
2022/09/29 03:21:52;;;;;;;3.30;2.88;;;10.90;58.50;;;;;;4986670;28;20054;-57
2022/09/29 03:24:20;;;;;;;4.38;3.17;;;10.90;58.50;;;;;;4983850;28;20054;-54
2022/09/29 03:26:48;;;;;;;4.20;3.42;;;10.90;58.50;;;;;;4983310;28;20434;-55
2022/09/29 03:29:15;;;;;;;4.15;3.08;;;10.90;58.50;;;;;;4986958;28;20054;-56
2022/09/29 03:31:42;;;;;;;5.20;2.80;;;10.80;58.50;;;;;;4984115;28;20437;-55
2022/09/29 03:34:09;;;;;;;3.95;2.55;;;10.80;58.50;;;;;;4984126;28;20061;-56
2022/09/29 03:36:36;;;;;;;2.78;2.47;;;10.80;58.50;;;;;;4982733;28;20072;-54
2022/09/29 03:39:04;;;;;;;3.40;2.85;;;10.80;58.50;;;;;;4983696;28;20521;-56
2022/09/29 03:41:32;;;;;;;2.35;1.92;;;10.80;58.50;;;;;;4985359;28;20062;-56
2022/09/29 03:44:00;;;;;;;3.83;2.58;;;10.80;58.50;;;;;;4983872;28;20069;-57
2022/09/29 03:46:27;;;;;;;4.18;3.00;;;10.70;58.40;;;;;;4981348;28;20053;-56
2022/09/29 03:48:55;;;;;;;3.17;2.78;;;10.70;58.40;;;;;;4986424;28;20410;-57
2022/09/29 03:51:22;;;;;;;2.85;2.42;;;10.70;58.50;;;;;;4984766;28;20414;-52
2022/09/29 03:53:49;;;;;;;2.30;2.10;;;10.70;58.40;;;;;;4985624;28;20054;-54
2022/09/29 03:56:16;;;;;;;2.50;2.13;;;10.60;58.40;;;;;;4983909;28;20410;-55
2022/09/29 03:58:45;;;;;;;2.90;2.30;;;10.60;58.40;;;;;;4983565;28;20073;-56
2022/09/29 04:01:12;;;;;;;3.50;2.90;;;10.60;58.40;;;;;;4983125;28;20065;-57
2022/09/29 04:03:39;;;;;;;2.90;2.33;;;10.60;58.40;;;;;;4985465;28;20062;-56
2022/09/29 04:06:07;;;;;;;3.30;2.97;;;10.60;58.40;;;;;;4982643;28;20062;-57
2022/09/29 04:08:36;;;;;;;2.78;2.35;;;10.60;58.40;;;;;;4986338;28;20073;-57
2022/09/29 04:11:04;;;;;;;4.57;2.33;;;10.50;58.40;;;;;;4985161;28;22159;-57
2022/09/29 04:13:32;;;;;;;3.20;2.60;;;10.50;58.40;;;;;;4983740;28;20054;-57
2022/09/29 04:16:02;;;;;;;3.03;2.47;;;10.50;58.40;;;;;;4975135;28;20058;-53
2022/09/29 04:18:30;;;;;;;3.22;2.30;;;10.50;58.40;;;;;;4980314;28;20372;-52
2022/09/29 04:20:59;;;;;;;2.85;2.40;;;10.50;58.40;;;;;;4984117;28;20042;-57
2022/09/29 04:23:28;;;;;;;2.92;2.50;;;10.40;58.40;;;;;;4984209;28;20494;-52
2022/09/29 04:25:55;;;;;;;3.88;2.47;;;10.40;58.90;;;;;;4981922;28;20628;-56
2022/09/29 04:28:23;;;;;;;3.42;2.75;;;10.40;58.40;;;;;;4981305;28;20049;-53
2022/09/29 04:30:50;;;;;;;3.85;2.53;;;10.40;58.50;;;;;;4983247;28;20517;-57
2022/09/29 04:33:19;;;;;;;5.85;3.60;;;10.40;58.40;;;;;;4982042;28;20065;-53
2022/09/29 04:35:46;;;;;;;9.75;5.70;;;10.30;58.40;;;;;;4982019;28;20051;-54
2022/09/29 04:38:14;;;;;;;7.53;4.50;;;10.30;58.40;;;;;;4981519;28;20422;-56
2022/09/29 04:40:41;;;;;;;4.10;2.78;;;10.30;58.40;;;;;;4982015;28;20050;-55
2022/09/29 04:43:08;;;;;;;3.42;2.78;;;10.30;58.40;;;;;;4984480;28;20058;-57
2022/09/29 04:45:35;;;;;;;3.10;2.60;;;10.30;58.40;;;;;;4981142;28;20053;-56
2022/09/29 04:48:03;;;;;;;3.25;2.60;;;10.30;58.50;;;;;;4985431;28;20054;-55
2022/09/29 04:50:31;;;;;;;2.88;2.47;;;10.20;58.40;;;;;;4984788;28;21165;-56
2022/09/29 04:52:59;;;;;;;3.05;2.47;;;10.20;58.40;;;;;;4976614;28;20066;-54
2022/09/29 04:55:26;;;;;;;2.92;2.63;;;10.20;58.40;;;;;;4978722;28;20050;-56
2022/09/29 04:57:53;;;;;;;3.55;2.30;;;10.20;58.50;;;;;;4982769;28;20054;-56
2022/09/29 05:00:21;;;;;;;3.65;2.83;;;10.20;58.50;;;;;;4982808;28;20046;-56
2022/09/29 05:02:48;;;;;;;3.53;2.90;;;10.10;58.50;;;;;;4981878;28;20062;-57
2022/09/29 05:05:15;;;;;;;2.85;2.38;;;10.20;58.60;;;;;;4982580;28;20534;-57
2022/09/29 05:07:44;;;;;;;3.92;2.72;;;10.10;58.60;;;;;;4980455;28;20061;-56
2022/09/29 05:10:12;;;;;;;5.75;3.97;;;10.10;58.60;;;;;;4979712;28;20053;-54
2022/09/29 05:12:39;;;;;;;21.35;10.80;;;10.10;58.60;;;;;;4984475;28;20443;-56
2022/09/29 05:15:08;;;;;;;11.25;5.88;;;10.20;58.70;;;;;;4976979;28;20062;-51
2022/09/29 05:17:36;;;;;;;5.78;3.63;;;10.10;58.60;;;;;;4988329;28;20058;-50
2022/09/29 05:20:03;;;;;;;3.47;3.05;;;10.10;58.70;;;;;;4989385;28;20066;-55
2022/09/29 05:22:31;;;;;;;4.35;2.58;;;10.10;58.70;;;;;;4989305;28;20051;-56
2022/09/29 05:25:00;;;;;;;4.28;2.85;;;10.10;58.70;;;;;;4986364;28;20392;-54
2022/09/29 05:27:27;;;;;;;3.30;2.78;;;10.10;58.70;;;;;;4986384;28;20066;-56
2022/09/29 05:29:54;;;;;;;4.85;3.17;;;10.10;58.70;;;;;;4985030;28;20058;-57
2022/09/29 05:32:22;;;;;;;3.67;2.78;;;10.00;58.70;;;;;;4987426;28;20406;-57
2022/09/29 05:34:49;;;;;;;4.18;3.08;;;10.00;58.60;;;;;;4984811;28;20065;-57
2022/09/29 05:37:17;;;;;;;4.18;2.88;;;10.00;58.60;;;;;;4986678;28;20498;-55
2022/09/29 05:39:45;;;;;;;3.80;2.90;;;10.00;58.60;;;;;;4986891;28;20055;-56
2022/09/29 05:42:13;;;;;;;4.10;2.85;;;10.00;58.60;;;;;;4986549;28;20058;-57
2022/09/29 05:44:41;;;;;;;3.83;2.92;;;10.00;58.60;;;;;;4985193;28;20066;-52
2022/09/29 05:47:08;;;;;;;4.28;3.17;;;10.00;58.60;;;;;;4984374;28;20055;-55
2022/09/29 05:49:35;;;;;;;4.70;3.55;;;10.00;58.60;;;;;;4980857;28;20044;-56
2022/09/29 05:52:03;;;;;;;4.05;3.10;;;9.90;58.60;;;;;;4984087;28;20418;-56
2022/09/29 05:54:30;;;;;;;3.60;2.78;;;9.90;58.60;;;;;;4981943;28;20073;-56
2022/09/29 05:56:57;;;;;;;3.42;2.75;;;10.00;58.70;;;;;;4982992;28;20058;-54
2022/09/29 05:59:26;;;;;;;4.38;2.80;;;9.90;58.60;;;;;;4983537;28;20502;-55
2022/09/29 06:01:53;;;;;;;2.92;2.47;;;9.90;58.70;;;;;;4979321;28;20502;-56
2022/09/29 06:04:20;;;;;;;4.35;2.85;;;9.90;58.70;;;;;;4985378;28;20050;-56
2022/09/29 06:06:47;;;;;;;3.08;2.53;;;9.90;58.80;;;;;;4983952;28;20491;-56
2022/09/29 06:09:15;;;;;;;4.18;3.15;;;9.90;59.30;;;;;;4986367;28;20058;-56
2022/09/29 06:11:42;;;;;;;3.35;2.55;;;9.90;58.80;;;;;;4984579;28;20400;-56
2022/09/29 06:14:09;;;;;;;3.35;2.80;;;9.90;58.80;;;;;;4983406;28;20395;-56
2022/09/29 06:16:38;;;;;;;3.70;2.90;;;9.90;58.90;;;;;;4981682;28;20069;-56
2022/09/29 06:19:05;;;;;;;2.90;2.38;;;9.90;58.90;;;;;;4982129;28;20054;-52
2022/09/29 06:21:34;;;;;;;3.17;2.40;;;9.90;59.00;;;;;;4985969;28;20054;-57
2022/09/29 06:24:01;;;;;;;4.82;2.78;;;9.90;59.10;;;;;;4987123;28;20058;-57
2022/09/29 06:26:30;;;;;;;2.95;2.63;;;9.90;59.10;;;;;;4985045;28;20051;-52
2022/09/29 06:28:57;;;;;;;6.18;2.70;;;9.90;59.10;;;;;;4986201;28;20407;-57
2022/09/29 06:31:26;;;;;;;2.55;2.28;;;9.90;59.10;;;;;;4982888;28;20065;-56
2022/09/29 06:33:56;;;;;;;3.78;2.92;;;9.90;59.20;;;;;;4980030;28;20050;-53
2022/09/29 06:39:14;;;;;;;3.60;2.50;;;10.00;59.30;;;;;;4992531;28;20050;-56
2022/09/29 06:41:43;;;;;;;3.53;2.38;;;10.00;59.30;;;;;;4982002;28;20062;-57
2022/09/29 06:44:10;;;;;;;2.42;2.00;;;10.00;59.40;;;;;;4982079;28;20514;-57
2022/09/29 06:46:37;;;;;;;4.07;2.60;;;10.00;59.40;;;;;;4983374;28;21133;-54
2022/09/29 06:49:06;;;;;;;3.22;2.35;;;10.00;59.90;;;;;;4982754;28;20112;-57
2022/09/29 06:51:35;;;;;;;3.70;2.05;;;10.00;59.50;;;;;;4986240;28;20065;-55
2022/09/29 06:54:02;;;;;;;4.05;1.80;;;10.00;59.50;;;;;;4985844;28;20495;-56
2022/09/29 06:56:29;;;;;;;3.25;2.30;;;10.00;59.60;;;;;;4982609;28;20050;-56
2022/09/29 06:58:56;;;;;;;4.53;3.08;;;10.10;59.70;;;;;;4982978;28;20061;-56
2022/09/29 07:01:24;;;;;;;15.98;7.72;;;10.10;59.70;;;;;;4980902;28;20065;-56
2022/09/29 07:03:51;;;;;;;9.98;5.03;;;10.10;59.80;;;;;;4982627;28;20065;-56
2022/09/29 07:06:20;;;;;;;5.97;3.22;;;10.10;59.80;;;;;;4981978;28;20066;-56
2022/09/29 07:08:47;;;;;;;6.05;3.47;;;10.20;60.00;;;;;;4984507;28;20054;-57
2022/09/29 07:11:15;;;;;;;7.35;4.28;;;10.20;60.20;;;;;;4982551;28;20058;-57
2022/09/29 07:13:42;;;;;;;6.25;3.35;;;10.20;60.20;;;;;;4983332;28;20065;-56
2022/09/29 07:16:12;;;;;;;4.00;2.78;;;10.20;60.30;;;;;;4978357;28;20062;-55
2022/09/29 07:18:41;;;;;;;2.85;2.17;;;10.30;60.40;;;;;;4985554;28;20054;-57
2022/09/29 07:21:11;;;;;;;3.80;2.60;;;10.30;60.50;;;;;;4985846;28;20052;-56
2022/09/29 07:23:41;;;;;;;3.08;2.15;;;10.30;60.50;;;;;;4981668;28;20054;-55
2022/09/29 07:26:08;;;;;;;2.45;2.08;;;10.40;60.60;;;;;;4984186;28;20054;-50
2022/09/29 07:28:36;;;;;;;3.00;2.42;;;10.40;60.60;;;;;;4982716;28;20042;-53
2022/09/29 07:31:06;;;;;;;3.00;2.15;;;10.40;60.70;;;;;;4982740;28;20046;-57
2022/09/29 07:33:34;;;;;;;2.70;2.20;;;10.50;60.80;;;;;;4985098;28;20054;-53
2022/09/29 07:36:01;;;;;;;3.10;2.13;;;10.50;60.90;;;;;;4982205;28;20498;-57
2022/09/29 07:38:30;;;;;;;4.32;2.42;;;10.60;60.90;;;;;;4984934;28;20066;-57
2022/09/29 07:41:01;;;;;;;3.42;2.25;;;10.60;61.00;;;;;;4983780;28;20054;-56
2022/09/29 07:43:30;;;;;;;2.45;2.25;;;10.60;61.10;;;;;;4983820;28;20050;-56
2022/09/29 07:45:59;;;;;;;2.78;2.30;;;10.70;61.30;;;;;;4982406;28;20069;-57
2022/09/29 07:48:27;;;;;;;3.95;2.90;;;10.70;61.40;;;;;;4985563;28;20061;-56
2022/09/29 07:51:00;;;;;;;2.65;2.30;;;10.80;61.50;;;;;;4981939;28;20058;-57
2022/09/29 07:53:28;;;;;;;4.07;2.60;;;10.80;61.60;;;;;;4980222;28;20087;-57
2022/09/29 07:55:55;;;;;;;3.33;2.65;;;10.80;61.60;;;;;;4981012;28;20062;-52
2022/09/29 07:58:24;;;;;;;3.30;2.42;;;10.90;61.80;;;;;;4984201;28;20054;-54
2022/09/29 08:00:55;;;;;;;4.45;2.53;;;10.90;61.90;;;;;;4979171;28;21487;-57
2022/09/29 08:03:24;;;;;;;3.65;2.53;;;10.90;62.10;;;;;;4983847;28;20525;-56
2022/09/29 08:05:52;;;;;;;2.60;2.20;;;11.00;62.10;;;;;;4985791;28;20066;-57
2022/09/29 08:08:19;;;;;;;4.35;2.47;;;11.00;62.20;;;;;;4983677;28;20057;-57
2022/09/29 08:10:47;;;;;;;5.15;3.03;;;11.10;62.50;;;;;;4980883;28;20054;-57
2022/09/29 08:13:14;;;;;;;2.92;2.45;;;11.10;62.70;;;;;;4981586;28;20061;-57
2022/09/29 08:15:43;;;;;;;5.05;2.53;;;11.20;62.80;;;;;;4977086;28;20422;-52
2022/09/29 08:18:10;;;;;;;3.08;2.63;;;11.20;62.90;;;;;;4984275;28;20074;-57
2022/09/29 08:20:37;;;;;;;3.58;2.45;;;11.30;62.90;;;;;;4981967;28;20073;-57
2022/09/29 08:23:05;;;;;;;4.25;2.83;;;11.30;62.90;;;;;;4979558;28;20061;-57
2022/09/29 08:25:34;;;;;;;2.97;2.35;;;11.30;63.10;;;;;;4982032;28;20046;-55
2022/09/29 08:28:01;;;;;;;5.68;2.75;;;11.40;63.10;;;;;;4985177;28;20054;-56
2022/09/29 08:30:29;;;;;;;4.45;2.50;;;11.40;63.10;;;;;;4980040;28;20054;-56
2022/09/29 08:32:57;;;;;;;4.70;3.15;;;11.50;63.10;;;;;;4985288;28;20062;-56
2022/09/29 08:35:25;;;;;;;4.68;2.90;;;11.50;63.10;;;;;;4983723;28;20054;-53
2022/09/29 08:37:57;;;;;;;2.47;2.22;;;11.50;63.00;;;;;;4983704;28;20050;-56
2022/09/29 08:40:28;;;;;;;3.25;2.85;;;11.60;63.00;;;;;;4984566;28;20054;-57
2022/09/29 08:43:03;;;;;;;3.65;2.55;;;11.60;63.20;;;;;;4984820;28;20054;-56
2022/09/29 08:45:35;;;;;;;2.50;2.30;;;11.70;63.20;;;;;;4981781;28;20442;-57
2022/09/29 08:48:10;;;;;;;3.85;2.50;;;11.70;63.10;;;;;;4985080;28;20497;-57
2022/09/29 08:50:42;;;;;;;3.58;2.83;;;11.70;63.80;;;;;;4983707;28;20057;-51
2022/09/29 08:53:12;;;;;;;3.97;2.67;;;11.80;63.20;;;;;;4984812;28;20054;-57
2022/09/29 08:55:45;;;;;;;3.63;2.40;;;11.80;63.30;;;;;;4984895;28;20061;-57
2022/09/29 08:58:15;;;;;;;3.33;2.63;;;11.90;63.40;;;;;;4982909;28;20061;-57
2022/09/29 09:00:50;;;;;;;4.00;2.38;;;11.90;63.40;;;;;;4982227;28;20057;-57
2022/09/29 09:03:51;;;;;;;4.53;2.65;;;11.90;63.40;;;;;;4984020;28;20065;-57
2022/09/29 09:06:32;;;;;;;5.45;2.80;;;12.00;63.60;;;;;;4983667;28;20054;-56
2022/09/29 09:09:16;;;;;;;2.50;2.30;;;12.00;63.70;;;;;;4984817;28;20054;-56
2022/09/29 09:12:10;;;;;;;3.70;2.50;;;12.10;63.70;;;;;;4980320;28;20058;-53
2022/09/29 09:14:54;;;;;;;3.65;2.58;;;12.10;63.60;;;;;;4983002;28;20081;-48
2022/09/29 09:17:31;;;;;;;6.40;2.23;;;12.20;63.70;;;;;;4974356;28;20054;-47
2022/09/29 09:20:18;;;;;;;4.63;2.80;;;12.20;63.70;;;;;;4977356;28;20497;-46
2022/09/29 09:22:55;;;;;;;3.00;2.38;;;12.30;64.00;;;;;;4981490;28;20055;-50
2022/09/29 09:25:32;;;;;;;3.63;2.85;;;12.30;63.90;;;;;;4981723;28;20066;-51
2022/09/29 09:28:06;;;;;;;3.85;2.97;;;12.40;64.20;;;;;;4983070;28;20050;-47
2022/09/29 09:30:41;;;;;;;4.22;2.92;;;12.40;64.20;;;;;;4979893;28;20050;-47
2022/09/29 09:33:18;;;;;;;6.05;2.83;;;12.40;64.20;;;;;;4979869;28;20065;-48
2022/09/29 09:35:52;;;;;;;4.25;2.92;;;12.50;64.30;;;;;;4981778;28;20410;-51
2022/09/29 09:38:22;;;;;;;4.40;3.00;;;12.60;64.20;;;;;;4979896;28;20076;-48
2022/09/29 09:40:55;;;;;;;5.47;3.40;;;12.60;64.10;;;;;;4981613;28;20069;-49
2022/09/29 09:43:27;;;;;;;5.75;3.08;;;12.70;64.20;;;;;;4980047;28;20505;-51
2022/09/29 09:46:00;;;;;;;4.82;3.40;;;12.70;64.20;;;;;;4978180;28;20057;-46
2022/09/29 09:48:33;;;;;;;6.03;3.75;;;12.70;64.50;;;;;;4980096;28;20054;-49
2022/09/29 09:51:21;;;;;;;3.83;3.00;;;12.90;64.70;;;;;;4979710;28;20054;-49
2022/09/29 09:53:50;;;;;;;5.32;3.17;;;12.90;64.90;;;;;;4978071;28;20655;-50
2022/09/29 09:56:26;;;;;;;4.00;2.83;;;12.90;64.70;;;;;;4981298;28;20399;-46
2022/09/29 09:59:05;;;;;;;7.25;3.03;;;13.00;64.90;;;;;;4978972;28;20058;-48
2022/09/29 10:01:33;;;;;;;4.20;3.10;;;13.10;65.10;;;;;;4980295;28;20426;-44
2022/09/29 10:04:01;;;;;;;5.75;3.00;;;13.10;65.00;;;;;;4981883;28;20050;-48
2022/09/29 10:06:30;;;;;;;4.97;3.22;;;13.20;65.00;;;;;;4983877;28;20057;-50
2022/09/29 10:08:57;;;;;;;4.00;3.58;;;13.20;65.10;;;;;;4985054;28;20081;-50
2022/09/29 10:11:26;;;;;;;5.43;3.03;;;13.30;65.10;;;;;;4984905;28;20050;-44
2022/09/29 10:14:00;;;;;;;6.00;2.65;;;13.30;65.80;;;;;;4979939;28;20069;-47
2022/09/29 10:16:35;;;;;;;3.55;2.70;;;13.40;65.10;;;;;;4980132;28;20058;-49
2022/09/29 10:19:02;;;;;;;6.10;2.75;;;13.40;65.00;;;;;;4983049;28;20065;-48
2022/09/29 10:21:41;;;;;;;4.65;2.80;;;13.50;64.90;;;;;;4983371;28;20417;-50
2022/09/29 10:24:22;;;;;;;4.53;3.20;;;13.60;65.10;;;;;;4981901;28;20053;-49
2022/09/29 10:26:52;;;;;;;3.85;2.65;;;13.60;65.00;;;;;;4981403;28;20064;-48
2022/09/29 10:29:25;;;;;;;4.72;2.63;;;13.70;64.80;;;;;;4979947;28;20047;-49
2022/09/29 10:32:07;;;;;;;4.45;2.80;;;13.70;64.40;;;;;;4982250;28;20050;-48
2022/09/29 10:34:36;;;;;;;5.07;2.95;;;13.80;64.10;;;;;;4980350;28;20050;-46
2022/09/29 10:37:07;;;;;;;11.02;3.15;;;13.90;63.90;;;;;;4983462;28;20081;-48
2022/09/29 10:39:41;;;;;;;4.20;2.38;;;13.90;63.70;;;;;;4985255;28;20384;-46
2022/09/29 10:42:22;;;;;;;;;;;14.00;63.80;;;;;;4978831;28;20057;-48
2022/09/29 10:44:53;;;;;;;6.05;2.35;;;14.00;63.70;;;;;;4982305;28;20294;-50
2022/09/29 10:47:23;;;;;;;5.25;2.88;;;14.10;63.40;;;;;;4978782;28;20065;-46
2022/09/29 10:50:11;;;;;;;6.57;2.92;;;14.20;63.30;;;;;;4985164;28;20437;-47
2022/09/29 10:52:43;;;;;;;6.70;2.55;;;14.20;62.90;;;;;;4978065;28;20055;-48
2022/09/29 10:55:17;;;;;;;5.18;2.22;;;14.30;62.40;;;;;;4978806;28;20057;-48
2022/09/29 10:57:45;;;;;;;;;;;14.30;61.50;;;;;;4978802;28;20058;-47
2022/09/29 11:00:26;;;;;;;5.95;2.25;;;14.40;61.70;;;;;;4980411;28;20370;-43
2022/09/29 11:02:59;;;;;;;5.70;2.30;;;14.40;61.10;;;;;;4982491;28;20058;-45
2022/09/29 11:05:26;;;;;;;8.27;2.42;;;14.50;60.80;;;;;;4983654;28;20057;-49
2022/09/29 11:07:55;;;;;;;2.42;1.60;;;14.50;60.00;;;;;;4985553;28;20062;-48
2022/09/29 11:10:30;;;;;;;3.78;1.95;;;14.60;59.80;;;;;;4976811;28;20053;-50
2022/09/29 11:12:59;;;;;;;3.58;1.73;;;14.60;59.30;;;;;;4983843;28;20510;-46
2022/09/29 11:15:29;;;;;;;4.47;1.95;;;14.60;59.20;;;;;;4981224;28;20066;-51
2022/09/29 11:17:57;;;;;;;2.90;1.77;;;14.60;59.10;;;;;;4981972;28;20062;-51
2022/09/29 11:20:32;;;;;;;4.82;2.15;;;14.60;58.90;;;;;;4985850;28;20058;-50
2022/09/29 11:23:23;;;;;;;5.20;2.22;;;14.70;58.70;;;;;;4983090;28;20475;-50
2022/09/29 11:26:09;;;;;;;3.85;1.98;;;14.70;58.00;;;;;;4984531;28;20050;-48
2022/09/29 11:28:54;;;;;;;6.30;2.75;;;14.70;57.70;;;;;;4984526;28;20058;-49
2022/09/29 11:31:32;;;;;;;5.22;1.83;;;14.80;57.40;;;;;;4979263;28;20523;-49
2022/09/29 11:34:16;;;;;;;4.00;1.80;;;14.80;56.00;;;;;;4983733;28;20061;-48
2022/09/29 11:36:50;;;;;;;4.50;1.80;;;14.80;56.30;;;;;;4976752;28;20065;-49
2022/09/29 11:39:33;;;;;;;9.85;2.22;;;14.90;54.70;;;;;;4982523;28;20077;-51
2022/09/29 11:42:09;;;;;;;3.85;1.50;;;14.90;55.00;;;;;;4979471;28;20061;-43
2022/09/29 11:44:57;;;;;;;4.97;2.10;;;14.90;55.30;;;;;;4983417;28;20061;-47
2022/09/29 11:47:51;;;;;;;3.05;1.80;;;15.00;54.20;;;;;;4982535;28;20050;-49
2022/09/29 11:50:35;;;;;;;6.47;1.90;;;15.10;55.00;;;;;;4984502;28;20069;-50
2022/09/29 11:53:17;;;;;;;2.40;1.60;;;15.20;55.30;;;;;;4979918;28;20061;-50
2022/09/29 11:56:11;;;;;;;2.83;1.50;;;15.20;54.70;;;;;;4983045;28;20069;-51
2022/09/29 11:58:58;;;;;;;4.40;1.60;;;15.30;54.30;;;;;;4986680;28;20529;-49
2022/09/29 12:01:34;;;;;;;5.22;2.33;;;15.30;53.90;;;;;;4985219;28;20069;-50
2022/09/29 12:04:14;;;;;;;4.60;1.90;;;15.40;54.20;;;;;;4981496;28;20449;-46
2022/09/29 12:06:56;;;;;;;2.53;1.48;;;15.40;53.60;;;;;;4982165;28;20712;-51
2022/09/29 12:09:56;;;;;;;4.78;1.42;;;15.40;53.90;;;;;;4986244;28;20058;-51
2022/09/29 12:12:32;;;;;;;7.30;1.90;;;15.50;52.60;;;;;;4983617;28;20054;-51
2022/09/29 12:15:16;;;;;;;9.07;2.08;;;15.50;53.00;;;;;;4982194;28;20058;-47
2022/09/29 12:17:47;;;;;;;3.22;1.38;;;15.50;52.50;;;;;;4988093;28;20057;-51
2022/09/29 12:20:20;;;;;;;6.43;2.17;;;15.50;52.90;;;;;;4984578;28;20054;-49
2022/09/29 12:22:49;;;;;;;3.50;2.33;;;15.50;52.90;;;;;;4981658;28;20062;-49
2022/09/29 12:25:21;;;;;;;4.50;2.60;;;15.50;53.50;;;;;;4977967;28;20493;-47
2022/09/29 12:27:52;;;;;;;5.43;2.47;;;15.50;53.90;;;;;;4985591;28;20057;-50
2022/09/29 12:30:22;;;;;;;3.00;2.10;;;15.60;54.20;;;;;;4981213;28;20050;-51
2022/09/29 12:32:56;;;;;;;7.05;2.50;;;15.60;53.90;;;;;;4980170;28;20419;-51
2022/09/29 12:35:31;;;;;;;4.07;2.40;;;15.60;53.60;;;;;;4981799;28;20058;-48
2022/09/29 12:38:06;;;;;;;3.22;1.92;;;15.60;53.60;;;;;;4984323;28;20061;-51
2022/09/29 12:40:37;;;;;;;7.35;2.30;;;15.60;53.80;;;;;;4979204;28;20544;-49
2022/09/29 12:43:14;;;;;;;6.57;2.17;;;15.60;53.40;;;;;;4985174;28;20495;-48
2022/09/29 12:45:48;;;;;;;7.60;1.92;;;15.70;53.30;;;;;;4981667;28;20053;-50
2022/09/29 12:48:25;;;;;;;4.63;1.80;;;15.70;52.90;;;;;;4985168;28;20058;-46
2022/09/29 12:51:00;;;;;;;4.93;1.83;;;15.70;52.50;;;;;;4982646;28;20513;-48
2022/09/29 12:53:34;;;;;;;5.10;1.50;;;15.70;51.50;;;;;;4978297;28;20061;-50
2022/09/29 12:56:04;;;;;;;3.10;1.40;;;15.70;51.70;;;;;;4984779;28;20058;-48
2022/09/29 12:58:39;;;;;;;2.58;1.38;;;15.80;52.30;;;;;;4984353;28;20058;-46
2022/09/29 13:01:21;;;;;;;5.13;0.90;;;15.80;52.40;;;;;;4983034;28;20057;-50
2022/09/29 13:04:09;;;;;;;3.60;1.27;;;15.90;52.00;;;;;;4985357;28;20058;-48
2022/09/29 13:07:04;;;;;;;3.03;1.13;;;15.90;51.50;;;;;;4981878;28;20058;-50
2022/09/29 13:09:48;;;;;;;;;;;16.00;51.90;;;;;;4982920;28;20061;-50
2022/09/29 13:12:33;;;;;;;3.53;0.90;;;16.00;52.20;;;;;;4982205;28;19925;-47
2022/09/29 13:15:23;;;;;;;3.53;0.85;;;16.10;51.20;;;;;;4981015;28;20058;-46